»·PEaware :: UAL211 CYYZ-KORD

UAL211 :: CYYZ-KORD

FLIGHT INFORMATION

Flight Status: Arrived
Operator:
United Airlines
More flights by this operator :: More flights under this callsign
Pilot: Anonymous 13363 (13363)
Aircraft: BOEING 737-800
(B738)
More flights by this aircraft type
Origin: CYYZ Toronto/Pearson Intl
Canada
Destination: KORD Chicago-O'Hare Intl
United States
More flights between these airports :: More routes between these airports
Route: GOPUP2 HOCKE FNT WYNDE8
File this flight plan on PilotEdge
Remarks:
Altitude:
(Current/Filed)
36,000ft
Speed:
(Current/Filed)
390kts
Departed: 05-Oct-17 03:50 PM
Arrived: 05-Oct-17 05:09 PM
Distance/Time
Traveled:
378nm/1:19
Distance/Time
To Go:
Arrived

Flight Plot

Page will automatically refresh every two minutes.

Flight plan parsing failed; only flown route is shown


Map Options




Map Legend


Flown Route
Filed Route
Departure Airport
Arrival Airport
Navaid (VOR, NDB)
Fix

Horizontal Profiles

Position Reports

Time Latitude Longitude Heading Altitude Ground
Speed
05-Oct-17 15:24 43.679797 -79.610599 283 565ft 0kts
05-Oct-17 15:25 43.679797 -79.610599 283 565ft 0kts
05-Oct-17 15:26 43.679797 -79.610599 283 565ft 0kts
05-Oct-17 15:27 43.679797 -79.610599 283 565ft 0kts
05-Oct-17 15:28 43.679797 -79.610599 283 565ft 0kts
05-Oct-17 15:29 43.679797 -79.610599 283 565ft 0kts
05-Oct-17 15:30 43.679797 -79.610599 283 565ft 0kts
05-Oct-17 15:31 43.679797 -79.610599 283 565ft 0kts
05-Oct-17 15:32 43.679797 -79.610599 283 565ft 0kts
05-Oct-17 15:33 43.679797 -79.610599 283 565ft 0kts
05-Oct-17 15:34 43.679797 -79.610599 283 565ft 0kts
05-Oct-17 15:35 43.679797 -79.610599 283 565ft 0kts
05-Oct-17 15:36 43.679797 -79.610599 283 565ft 0kts
05-Oct-17 15:37 43.679797 -79.610599 283 565ft 0kts
05-Oct-17 15:38 43.679797 -79.610599 283 565ft 0kts
05-Oct-17 15:39 43.679797 -79.610599 283 565ft 0kts
05-Oct-17 15:40 43.679797 -79.610599 283 565ft 0kts
05-Oct-17 15:41 43.679796 -79.610586 282 565ft 1kts
05-Oct-17 15:42 43.679413 -79.609996 325 565ft 2kts
05-Oct-17 15:43 43.678841 -79.609857 11 565ft 2kts
05-Oct-17 15:44 43.679135 -79.608433 134 564ft 7kts
05-Oct-17 15:45 43.677812 -79.607592 148 561ft 7kts
05-Oct-17 15:46 43.677396 -79.607150 136 560ft 0kts
05-Oct-17 15:47 43.677396 -79.607150 136 560ft 0kts
05-Oct-17 15:48 43.677396 -79.607150 136 560ft 0kts
05-Oct-17 15:49 43.677332 -79.607071 138 560ft 3kts
05-Oct-17 15:50 43.676582 -79.605568 44 557ft 3kts
05-Oct-17 15:51 43.677736 -79.603913 47 555ft 10kts
05-Oct-17 15:52 43.680368 -79.599949 79 553ft 10kts
05-Oct-17 15:53 43.679097 -79.597140 222 545ft 0kts
05-Oct-17 15:54 43.660426 -79.623284 233 1365ft 149kts
05-Oct-17 15:55 43.646186 -79.672630 285 3241ft 195kts
05-Oct-17 15:56 43.667447 -79.761662 285 6003ft 266kts
05-Oct-17 15:57 43.685158 -79.860717 282 10143ft 266kts
05-Oct-17 15:58 43.700643 -79.967010 278 13176ft 297kts
05-Oct-17 15:59 43.712892 -80.080455 277 16876ft 305kts
05-Oct-17 16:00 43.724805 -80.196532 277 20635ft 311kts
05-Oct-17 16:01 43.733775 -80.315320 272 23858ft 319kts
05-Oct-17 16:02 43.734615 -80.439728 270 26602ft 330kts
05-Oct-17 16:03 43.734084 -80.565130 270 29682ft 321kts
05-Oct-17 16:04 43.733539 -80.684238 270 32245ft 312kts
05-Oct-17 16:05 43.732945 -80.803286 271 34361ft 309kts
05-Oct-17 16:06 43.732418 -80.922062 271 35875ft 314kts
05-Oct-17 16:07 43.731871 -81.049448 271 35912ft 348kts
05-Oct-17 16:08 43.731442 -81.188892 271 35894ft 371kts
05-Oct-17 16:09 43.731349 -81.330361 271 35993ft 370kts
05-Oct-17 16:10 43.731459 -81.472568 271 35986ft 369kts
05-Oct-17 16:11 43.707310 -81.610305 250 35989ft 380kts
05-Oct-17 16:12 43.658038 -81.736241 248 36006ft 378kts
05-Oct-17 16:13 43.608377 -81.858528 249 36004ft 369kts
05-Oct-17 16:14 43.558216 -81.980908 249 35995ft 367kts
05-Oct-17 16:15 43.508143 -82.103279 249 35992ft 367kts
05-Oct-17 16:16 43.458635 -82.225782 249 35990ft 366kts
05-Oct-17 16:17 43.409576 -82.347879 249 35988ft 366kts
05-Oct-17 16:18 43.360560 -82.469866 249 36091ft 366kts
05-Oct-17 16:19 43.311411 -82.592402 250 36120ft 368kts
05-Oct-17 16:20 43.262829 -82.714041 251 36126ft 364kts
05-Oct-17 16:21 43.226569 -82.841727 255 36127ft 359kts
05-Oct-17 16:22 43.190162 -82.968590 255 36124ft 359kts
05-Oct-17 16:23 43.153538 -83.096066 255 36149ft 360kts
05-Oct-17 16:24 43.117147 -83.223212 256 36147ft 360kts
05-Oct-17 16:25 43.080824 -83.350625 256 36145ft 360kts
05-Oct-17 16:26 43.044627 -83.478093 256 36142ft 360kts
05-Oct-17 16:27 43.008636 -83.605337 256 36140ft 359kts
05-Oct-17 16:28 42.972726 -83.732293 256 36158ft 361kts
05-Oct-17 16:29 42.956789 -83.863391 267 36156ft 351kts
05-Oct-17 16:30 42.943808 -83.995337 266 36153ft 351kts
05-Oct-17 16:31 42.930668 -84.126751 266 36150ft 351kts
05-Oct-17 16:32 42.917589 -84.258717 267 36147ft 351kts
05-Oct-17 16:33 42.904698 -84.390251 267 36145ft 351kts
05-Oct-17 16:34 42.892047 -84.520718 267 36140ft 354kts
05-Oct-17 16:35 42.878719 -84.652999 266 36135ft 354kts
05-Oct-17 16:36 42.864719 -84.785850 266 36150ft 354kts
05-Oct-17 16:37 42.851061 -84.917941 266 36149ft 354kts
05-Oct-17 16:38 42.836678 -85.050365 266 36146ft 354kts
05-Oct-17 16:39 42.822125 -85.183220 266 36146ft 353kts
05-Oct-17 16:40 42.807880 -85.314820 266 36143ft 354kts
05-Oct-17 16:41 42.794027 -85.443479 266 36030ft 318kts
05-Oct-17 16:42 42.776877 -85.559017 263 33635ft 306kts
05-Oct-17 16:43 42.758705 -85.662170 261 31559ft 320kts
05-Oct-17 16:44 42.738939 -85.769964 260 29710ft 335kts
05-Oct-17 16:45 42.716134 -85.893846 259 27587ft 342kts
05-Oct-17 16:46 42.692969 -86.020573 259 25446ft 346kts
05-Oct-17 16:47 42.670001 -86.144877 258 23232ft 337kts
05-Oct-17 16:48 42.647438 -86.266785 258 21815ft 330kts
05-Oct-17 16:49 42.624488 -86.388708 258 21622ft 333kts
05-Oct-17 16:50 42.605335 -86.490112 258 21432ft 332kts
05-Oct-17 16:51 42.578792 -86.631274 258 21159ft 331kts
05-Oct-17 16:52 42.552859 -86.751332 253 19809ft 329kts
05-Oct-17 16:53 42.522101 -86.867309 252 18271ft 326kts
05-Oct-17 16:54 42.491069 -86.981585 252 16602ft 322kts
05-Oct-17 16:55 42.465851 -87.074544 252 15382ft 314kts
05-Oct-17 16:56 42.430900 -87.202161 251 13686ft 307kts
05-Oct-17 16:57 42.401303 -87.309760 251 12257ft 303kts
05-Oct-17 16:58 42.376797 -87.398233 250 11054ft 299kts
05-Oct-17 16:59 42.348669 -87.499094 246 9719ft 270kts
05-Oct-17 17:00 42.300451 -87.570750 224 9229ft 260kts
05-Oct-17 17:01 42.244259 -87.632574 222 9025ft 261kts
05-Oct-17 17:02 42.187539 -87.693704 219 8712ft 262kts
05-Oct-17 17:03 42.130948 -87.753381 217 8201ft 269kts
05-Oct-17 17:04 42.085246 -87.827708 263 7674ft 269kts
05-Oct-17 17:05 42.090074 -87.928884 271 6869ft 270kts
05-Oct-17 17:06 42.091398 -88.025967 270 5389ft 250kts
05-Oct-17 17:07 42.085814 -88.113703 227 4203ft 222kts
05-Oct-17 17:08 42.033941 -88.105210 155 3348ft 185kts
05-Oct-17 17:09 41.990107 -88.083743 130 2987ft 162kts
05-Oct-17 17:10 41.983930 -88.025201 89 2255ft 153kts
05-Oct-17 17:11 41.983933 -87.973410 89 1465ft 126kts
05-Oct-17 17:12 41.983912 -87.925602 89 803ft 131kts
05-Oct-17 17:13 41.983564 -87.900384 177 657ft 11kts
05-Oct-17 17:14 41.982903 -87.902301 268 658ft 4kts
05-Oct-17 17:15 41.982868 -87.906296 268 661ft 14kts
05-Oct-17 17:16 41.981266 -87.907299 102 663ft 6kts
05-Oct-17 17:17 41.981197 -87.906938 105 662ft 0kts
05-Oct-17 17:18 41.981197 -87.906938 105 662ft 0kts
05-Oct-17 17:19 41.981197 -87.906938 105 662ft 0kts

Navigation Log

Ident Type
Flight plan parsing failed, navigation log unavailable